createdAt,value
2018-08-20T00:00:35.953Z,1014.93
2018-08-20T00:01:35.971Z,1014.97
2018-08-20T00:02:35.953Z,1014.98
2018-08-20T00:03:35.954Z,1014.97
2018-08-20T00:04:35.955Z,1014.95
2018-08-20T00:05:35.951Z,1014.96
2018-08-20T00:06:35.948Z,1014.93
2018-08-20T00:07:35.932Z,1014.95
2018-08-20T00:08:35.936Z,1014.97
2018-08-20T00:09:35.930Z,1014.99
2018-08-20T00:10:35.922Z,1014.97
2018-08-20T00:11:35.928Z,1014.98
2018-08-20T00:12:35.921Z,1014.98
2018-08-20T00:13:35.916Z,1014.97
2018-08-20T00:14:35.911Z,1014.97
2018-08-20T00:15:35.909Z,1014.97
2018-08-20T00:16:35.914Z,1014.96
2018-08-20T00:17:35.902Z,1014.97
2018-08-20T00:18:35.896Z,1014.95
2018-08-20T00:19:35.891Z,1014.97
2018-08-20T00:20:35.900Z,1014.98
2018-08-20T00:21:35.882Z,1015.00
2018-08-20T00:22:35.896Z,1015.01
2018-08-20T00:23:35.885Z,1015.00
2018-08-20T00:24:35.877Z,1014.98
2018-08-20T00:25:35.872Z,1015.00
2018-08-20T00:26:35.875Z,1014.99
2018-08-20T00:27:35.869Z,1014.98
2018-08-20T00:28:35.866Z,1014.98
2018-08-20T00:29:35.864Z,1014.94
2018-08-20T00:30:35.862Z,1014.95
2018-08-20T00:31:35.856Z,1014.98
2018-08-20T00:32:35.857Z,1014.94
2018-08-20T00:33:35.847Z,1014.98
2018-08-20T00:34:35.840Z,1015.00
2018-08-20T00:35:35.841Z,1014.97
2018-08-20T00:36:35.847Z,1014.96
2018-08-20T00:37:35.840Z,1014.98
2018-08-20T00:38:35.837Z,1014.99
2018-08-20T00:39:35.825Z,1015.02
2018-08-20T00:40:35.828Z,1014.99
2018-08-20T00:41:35.837Z,1015.00
2018-08-20T00:42:35.821Z,1014.98
2018-08-20T00:43:35.815Z,1014.99
2018-08-20T00:44:35.807Z,1015.04
2018-08-20T00:45:35.805Z,1014.99
2018-08-20T00:46:35.805Z,1015.02
2018-08-20T00:47:35.797Z,1015.02
2018-08-20T00:48:35.797Z,1015.01
2018-08-20T00:49:35.795Z,1014.99
2018-08-20T00:50:35.798Z,1015.01
2018-08-20T00:51:35.795Z,1014.95
2018-08-20T00:52:35.781Z,1015.00
2018-08-20T00:53:35.779Z,1014.95
2018-08-20T00:54:35.782Z,1014.98
2018-08-20T00:55:35.779Z,1014.98
2018-08-20T00:56:35.762Z,1014.99
2018-08-20T00:57:35.767Z,1014.96
2018-08-20T00:58:35.775Z,1014.98
2018-08-20T00:59:35.771Z,1015.01
2018-08-20T01:00:35.751Z,1014.98
2018-08-20T01:01:35.752Z,1014.97
2018-08-20T01:02:35.753Z,1014.95
2018-08-20T01:03:35.757Z,1014.99
2018-08-20T01:04:35.747Z,1015.01
2018-08-20T01:05:35.750Z,1014.99
2018-08-20T01:06:35.743Z,1014.97
2018-08-20T01:07:35.733Z,1014.95
2018-08-20T01:08:35.733Z,1014.94
2018-08-20T01:09:35.735Z,1014.92
2018-08-20T01:10:35.728Z,1014.92
2018-08-20T01:11:35.720Z,1014.91
2018-08-20T01:12:35.715Z,1014.93
2018-08-20T01:13:35.726Z,1014.92
2018-08-20T01:14:35.716Z,1014.95
2018-08-20T01:15:35.711Z,1014.90
2018-08-20T01:16:35.705Z,1014.90
2018-08-20T01:17:35.701Z,1014.90
2018-08-20T01:18:35.721Z,1014.90
2018-08-20T01:19:35.696Z,1014.88
2018-08-20T01:20:35.700Z,1014.86
2018-08-20T01:21:35.715Z,1014.83
2018-08-20T01:22:35.681Z,1014.85
2018-08-20T01:23:35.673Z,1014.83
2018-08-20T01:24:35.683Z,1014.82
2018-08-20T01:25:35.677Z,1014.83
2018-08-20T01:26:35.672Z,1014.85
2018-08-20T01:27:35.662Z,1014.91
2018-08-20T01:28:35.668Z,1014.87
2018-08-20T01:29:35.664Z,1014.88
2018-08-20T01:30:35.657Z,1014.86
2018-08-20T01:31:35.658Z,1014.86
2018-08-20T01:32:35.648Z,1014.83
2018-08-20T01:33:35.647Z,1014.84
2018-08-20T01:34:35.643Z,1014.86
2018-08-20T01:35:35.652Z,1014.86
2018-08-20T01:36:35.642Z,1014.85
2018-08-20T01:37:35.641Z,1014.83
2018-08-20T01:38:35.628Z,1014.84
2018-08-20T01:39:35.627Z,1014.82
2018-08-20T01:40:35.619Z,1014.79
2018-08-20T01:41:35.612Z,1014.81
2018-08-20T01:42:35.612Z,1014.82
2018-08-20T01:43:35.622Z,1014.82
2018-08-20T01:44:35.605Z,1014.78
2018-08-20T01:45:35.598Z,1014.77
2018-08-20T01:46:35.613Z,1014.79
2018-08-20T01:47:35.591Z,1014.76
2018-08-20T01:48:35.592Z,1014.75
2018-08-20T01:49:35.598Z,1014.77
2018-08-20T01:50:35.593Z,1014.78
2018-08-20T01:51:35.583Z,1014.78
2018-08-20T01:52:35.583Z,1014.80
2018-08-20T01:53:35.585Z,1014.80
2018-08-20T01:54:35.574Z,1014.80
2018-08-20T01:55:35.561Z,1014.81
2018-08-20T01:56:35.567Z,1014.81
2018-08-20T01:57:35.568Z,1014.82
2018-08-20T01:58:35.557Z,1014.83
2018-08-20T01:59:35.558Z,1014.82
2018-08-20T02:00:35.559Z,1014.83
2018-08-20T02:01:35.544Z,1014.83
2018-08-20T02:02:35.549Z,1014.82
2018-08-20T02:03:35.544Z,1014.81
2018-08-20T02:04:35.540Z,1014.83
2018-08-20T02:05:35.533Z,1014.83
2018-08-20T02:06:35.538Z,1014.81
2018-08-20T02:07:35.535Z,1014.79
2018-08-20T02:08:35.529Z,1014.76
2018-08-20T02:09:35.517Z,1014.73
2018-08-20T02:10:35.524Z,1014.72
2018-08-20T02:11:35.518Z,1014.69
2018-08-20T02:12:35.519Z,1014.70
2018-08-20T02:13:35.511Z,1014.70
2018-08-20T02:14:35.501Z,1014.69
2018-08-20T02:15:35.502Z,1014.68
2018-08-20T02:16:35.494Z,1014.68
2018-08-20T02:17:35.494Z,1014.67
2018-08-20T02:18:35.507Z,1014.70
2018-08-20T02:19:35.492Z,1014.68
2018-08-20T02:20:35.487Z,1014.69
2018-08-20T02:21:35.484Z,1014.71
2018-08-20T02:22:35.489Z,1014.70
2018-08-20T02:23:35.469Z,1014.69
2018-08-20T02:24:35.483Z,1014.64
2018-08-20T02:25:35.474Z,1014.67
2018-08-20T02:26:35.463Z,1014.70
2018-08-20T02:27:35.463Z,1014.70
2018-08-20T02:28:35.457Z,1014.69
2018-08-20T02:29:35.454Z,1014.66
2018-08-20T02:30:35.454Z,1014.68
2018-08-20T02:31:35.455Z,1014.62
2018-08-20T02:32:35.443Z,1014.63
2018-08-20T02:33:35.439Z,1014.67
2018-08-20T02:34:35.439Z,1014.64
2018-08-20T02:35:35.433Z,1014.63
2018-08-20T02:36:35.433Z,1014.63
2018-08-20T02:37:35.427Z,1014.64
2018-08-20T02:38:35.419Z,1014.62
2018-08-20T02:39:35.435Z,1014.64
2018-08-20T02:40:35.418Z,1014.63
2018-08-20T02:41:35.408Z,1014.65
2018-08-20T02:42:35.421Z,1014.63
2018-08-20T02:43:35.414Z,1014.59
2018-08-20T02:44:35.409Z,1014.59
2018-08-20T02:45:35.409Z,1014.53
2018-08-20T02:46:35.402Z,1014.49
2018-08-20T02:47:35.413Z,1014.52
2018-08-20T02:48:35.394Z,1014.50
2018-08-20T02:49:35.389Z,1014.45
2018-08-20T02:50:35.388Z,1014.49
2018-08-20T02:51:35.384Z,1014.43
2018-08-20T02:52:35.368Z,1014.43
2018-08-20T02:53:35.377Z,1014.45
2018-08-20T02:54:35.368Z,1014.47
2018-08-20T02:55:35.362Z,1014.43
2018-08-20T02:56:35.353Z,1014.42
2018-08-20T02:57:35.358Z,1014.42
2018-08-20T02:58:35.360Z,1014.37
2018-08-20T02:59:35.358Z,1014.42
2018-08-20T03:00:35.353Z,1014.42
2018-08-20T03:01:35.363Z,1014.42
2018-08-20T03:02:35.343Z,1014.46
2018-08-20T03:03:35.364Z,1014.50
2018-08-20T03:04:35.342Z,1014.48
2018-08-20T03:05:35.333Z,1014.48
2018-08-20T03:06:35.325Z,1014.47
2018-08-20T03:07:35.324Z,1014.48
2018-08-20T03:08:35.327Z,1014.51
2018-08-20T03:09:35.314Z,1014.52
2018-08-20T03:10:35.319Z,1014.52
2018-08-20T03:11:35.315Z,1014.52
2018-08-20T03:12:35.303Z,1014.46
2018-08-20T03:13:35.307Z,1014.56
2018-08-20T03:14:35.302Z,1014.52
2018-08-20T03:15:35.294Z,1014.47
2018-08-20T03:16:35.295Z,1014.48
2018-08-20T03:17:35.357Z,1014.49
2018-08-20T03:18:35.292Z,1014.54
2018-08-20T03:19:35.284Z,1014.53
2018-08-20T03:20:35.279Z,1014.53
2018-08-20T03:21:35.278Z,1014.55
2018-08-20T03:22:35.274Z,1014.56
2018-08-20T03:23:35.265Z,1014.60
2018-08-20T03:24:35.265Z,1014.59
2018-08-20T03:25:35.269Z,1014.57
2018-08-20T03:26:35.259Z,1014.61
2018-08-20T03:27:35.265Z,1014.61
2018-08-20T03:28:35.260Z,1014.62
2018-08-20T03:29:35.245Z,1014.60
2018-08-20T03:30:35.246Z,1014.67
2018-08-20T03:31:35.233Z,1014.62
2018-08-20T03:32:35.238Z,1014.63
2018-08-20T03:33:35.229Z,1014.61
2018-08-20T03:34:35.234Z,1014.61
2018-08-20T03:35:35.232Z,1014.67
2018-08-20T03:36:35.233Z,1014.64
2018-08-20T03:37:35.219Z,1014.59
2018-08-20T03:38:35.220Z,1014.63
2018-08-20T03:39:35.215Z,1014.63
2018-08-20T03:40:35.210Z,1014.65
2018-08-20T03:41:35.208Z,1014.61
2018-08-20T03:42:35.213Z,1014.65
2018-08-20T03:43:35.210Z,1014.65
2018-08-20T03:44:35.200Z,1014.65
2018-08-20T03:45:35.190Z,1014.66
2018-08-20T03:46:35.189Z,1014.70
2018-08-20T03:47:35.189Z,1014.71
2018-08-20T03:48:35.181Z,1014.71
2018-08-20T03:49:35.179Z,1014.72
2018-08-20T03:50:35.180Z,1014.75
2018-08-20T03:51:35.184Z,1014.75
2018-08-20T03:52:35.169Z,1014.74
2018-08-20T03:53:35.174Z,1014.75
2018-08-20T03:54:35.164Z,1014.81
2018-08-20T03:55:35.164Z,1014.82
2018-08-20T03:56:35.153Z,1014.85
2018-08-20T03:57:35.158Z,1014.85
2018-08-20T03:58:35.153Z,1014.92
2018-08-20T03:59:35.162Z,1014.89
2018-08-20T04:00:35.154Z,1014.98
2018-08-20T04:01:35.140Z,1014.95
2018-08-20T04:02:35.146Z,1014.95
2018-08-20T04:03:35.134Z,1015.03
2018-08-20T04:04:35.130Z,1015.04
2018-08-20T04:05:35.135Z,1015.04
2018-08-20T04:06:35.131Z,1015.03
2018-08-20T04:07:35.120Z,1015.02
2018-08-20T04:08:35.115Z,1015.01
2018-08-20T04:09:35.109Z,1015.04
2018-08-20T04:10:35.114Z,1015.08
2018-08-20T04:11:35.109Z,1015.03
2018-08-20T04:12:35.104Z,1015.05
2018-08-20T04:13:35.100Z,1015.06
2018-08-20T04:14:35.111Z,1015.06
2018-08-20T04:15:35.085Z,1015.06
2018-08-20T04:16:35.101Z,1015.14
2018-08-20T04:17:35.096Z,1015.08
2018-08-20T04:18:35.078Z,1015.07
2018-08-20T04:19:35.084Z,1015.04
2018-08-20T04:20:35.079Z,1015.03
2018-08-20T04:21:35.075Z,1015.05
2018-08-20T04:22:35.075Z,1015.03
2018-08-20T04:23:35.074Z,1015.04
2018-08-20T04:24:35.060Z,1015.04
2018-08-20T04:25:35.055Z,1015.02
2018-08-20T04:26:35.050Z,1015.01
2018-08-20T04:27:35.058Z,1015.03
2018-08-20T04:28:35.049Z,1014.99
2018-08-20T04:29:35.060Z,1014.95
2018-08-20T04:30:35.060Z,1014.99
2018-08-20T04:31:35.045Z,1014.97
2018-08-20T04:32:35.035Z,1014.98
2018-08-20T04:33:35.029Z,1014.96
2018-08-20T04:34:35.029Z,1014.97
2018-08-20T04:35:35.036Z,1014.99
2018-08-20T04:36:35.114Z,1014.99
2018-08-20T04:37:35.012Z,1015.00
2018-08-20T04:38:35.025Z,1015.01
2018-08-20T04:39:35.011Z,1014.97
2018-08-20T04:40:35.010Z,1014.99
2018-08-20T04:41:35.000Z,1014.97
2018-08-20T04:42:35.006Z,1015.01
2018-08-20T04:43:35.006Z,1015.02
2018-08-20T04:44:34.995Z,1015.00
2018-08-20T04:45:34.990Z,1015.05
2018-08-20T04:46:34.992Z,1015.06
2018-08-20T04:47:34.991Z,1015.03
2018-08-20T04:48:34.982Z,1015.02
2018-08-20T04:49:34.981Z,1015.02
2018-08-20T04:50:35.068Z,1015.01
2018-08-20T04:51:35.024Z,1015.01
2018-08-20T04:52:34.970Z,1014.98
2018-08-20T04:53:34.955Z,1014.96
2018-08-20T04:54:34.950Z,1015.00
2018-08-20T04:55:34.965Z,1014.99
2018-08-20T04:56:34.940Z,1015.00
2018-08-20T04:57:34.946Z,1015.05
2018-08-20T04:58:34.951Z,1015.03
2018-08-20T04:59:34.944Z,1015.02
2018-08-20T05:00:34.942Z,1015.02
2018-08-20T05:01:34.943Z,1015.05
2018-08-20T05:02:34.938Z,1015.03
2018-08-20T05:03:34.921Z,1015.03
2018-08-20T05:04:34.929Z,1015.02
2018-08-20T05:05:34.926Z,1015.02
2018-08-20T05:06:34.926Z,1015.05
2018-08-20T05:07:34.910Z,1015.09
2018-08-20T05:08:34.932Z,1015.07
2018-08-20T05:09:34.900Z,1015.09
2018-08-20T05:10:34.904Z,1015.09
2018-08-20T05:11:34.917Z,1015.10
2018-08-20T05:12:34.914Z,1015.10
2018-08-20T05:13:34.894Z,1015.11
2018-08-20T05:14:34.904Z,1015.09
2018-08-20T05:15:34.891Z,1015.12
2018-08-20T05:16:34.882Z,1015.12
2018-08-20T05:17:34.886Z,1015.10
2018-08-20T05:18:34.880Z,1015.10
2018-08-20T05:19:34.878Z,1015.16
2018-08-20T05:20:34.872Z,1015.18
2018-08-20T05:21:34.871Z,1015.19
2018-08-20T05:22:34.869Z,1015.19
2018-08-20T05:23:34.862Z,1015.19
2018-08-20T05:24:34.860Z,1015.18
2018-08-20T05:25:34.860Z,1015.17
2018-08-20T05:26:34.852Z,1015.17
2018-08-20T05:27:34.852Z,1015.19
2018-08-20T05:28:34.836Z,1015.18
2018-08-20T05:29:34.838Z,1015.13
2018-08-20T05:30:34.841Z,1015.16
2018-08-20T05:31:34.833Z,1015.17
2018-08-20T05:32:34.819Z,1015.19
2018-08-20T05:33:34.820Z,1015.15
2018-08-20T05:34:34.831Z,1015.13
2018-08-20T05:35:34.826Z,1015.14
2018-08-20T05:36:34.815Z,1015.12
2018-08-20T05:37:34.818Z,1015.11
2018-08-20T05:38:34.817Z,1015.14
2018-08-20T05:39:34.812Z,1015.13
2018-08-20T05:40:34.809Z,1015.15
2018-08-20T05:41:34.807Z,1015.15
2018-08-20T05:42:34.795Z,1015.17
2018-08-20T05:43:34.792Z,1015.20
2018-08-20T05:44:34.787Z,1015.19
2018-08-20T05:45:34.785Z,1015.24
2018-08-20T05:46:34.787Z,1015.23
2018-08-20T05:47:34.772Z,1015.25
2018-08-20T05:48:34.784Z,1015.26
2018-08-20T05:49:34.771Z,1015.28
2018-08-20T05:50:34.774Z,1015.29
2018-08-20T05:51:34.767Z,1015.29
2018-08-20T05:52:34.805Z,1015.30
2018-08-20T05:53:34.753Z,1015.28
2018-08-20T05:54:34.757Z,1015.27
2018-08-20T05:55:34.751Z,1015.29
2018-08-20T05:56:34.745Z,1015.29
2018-08-20T05:57:34.739Z,1015.29
2018-08-20T05:58:34.735Z,1015.29
2018-08-20T05:59:34.740Z,1015.30
2018-08-20T06:00:34.729Z,1015.33
2018-08-20T06:01:34.721Z,1015.30
2018-08-20T06:02:34.726Z,1015.33
2018-08-20T06:03:34.730Z,1015.33
2018-08-20T06:04:34.738Z,1015.32
2018-08-20T06:05:34.712Z,1015.35
2018-08-20T06:06:34.712Z,1015.32
2018-08-20T06:07:34.715Z,1015.33
2018-08-20T06:08:34.711Z,1015.32
2018-08-20T06:09:34.697Z,1015.32
2018-08-20T06:10:34.693Z,1015.35
2018-08-20T06:11:34.702Z,1015.33
2018-08-20T06:12:34.698Z,1015.36
2018-08-20T06:13:34.686Z,1015.39
2018-08-20T06:14:34.682Z,1015.38
2018-08-20T06:15:34.681Z,1015.39
2018-08-20T06:16:34.683Z,1015.40
2018-08-20T06:17:34.672Z,1015.38
2018-08-20T06:18:34.672Z,1015.42
2018-08-20T06:19:34.663Z,1015.42
2018-08-20T06:20:34.671Z,1015.42
2018-08-20T06:21:34.661Z,1015.44
2018-08-20T06:22:34.722Z,1015.46
2018-08-20T06:23:34.656Z,1015.45
2018-08-20T06:24:34.661Z,1015.49
2018-08-20T06:25:34.638Z,1015.50
2018-08-20T06:26:34.653Z,1015.48
2018-08-20T06:27:34.647Z,1015.50
2018-08-20T06:28:34.663Z,1015.49
2018-08-20T06:29:34.633Z,1015.50
2018-08-20T06:30:34.632Z,1015.50
2018-08-20T06:31:34.627Z,1015.50
2018-08-20T06:32:34.623Z,1015.53
2018-08-20T06:33:34.628Z,1015.55
2018-08-20T06:34:34.618Z,1015.56
2018-08-20T06:35:34.611Z,1015.56
2018-08-20T06:36:34.615Z,1015.57
2018-08-20T06:37:34.601Z,1015.54
2018-08-20T06:38:34.602Z,1015.60
2018-08-20T06:39:34.598Z,1015.56
2018-08-20T06:40:34.596Z,1015.57
2018-08-20T06:41:34.657Z,1015.58
2018-08-20T06:42:34.594Z,1015.60
2018-08-20T06:43:34.591Z,1015.57
2018-08-20T06:44:34.597Z,1015.55
2018-08-20T06:45:34.568Z,1015.58
2018-08-20T06:46:34.584Z,1015.59
2018-08-20T06:47:34.578Z,1015.60
2018-08-20T06:48:34.609Z,1015.64
2018-08-20T06:49:34.559Z,1015.63
2018-08-20T06:50:34.565Z,1015.65
2018-08-20T06:51:34.559Z,1015.63
2018-08-20T06:52:34.546Z,1015.61
2018-08-20T06:53:34.547Z,1015.63
2018-08-20T06:54:34.619Z,1015.62
2018-08-20T06:55:34.544Z,1015.61
2018-08-20T06:56:34.549Z,1015.62
2018-08-20T06:57:34.534Z,1015.66
2018-08-20T06:58:34.527Z,1015.66
2018-08-20T06:59:34.533Z,1015.70
2018-08-20T07:00:34.523Z,1015.71
2018-08-20T07:01:34.522Z,1015.72
2018-08-20T07:02:34.518Z,1015.76
2018-08-20T07:03:34.526Z,1015.75
2018-08-20T07:04:34.513Z,1015.76
2018-08-20T07:05:34.526Z,1015.74
2018-08-20T07:06:34.544Z,1015.78
2018-08-20T07:07:34.502Z,1015.81
2018-08-20T07:08:34.499Z,1015.84
2018-08-20T07:09:34.487Z,1015.85
2018-08-20T07:10:34.488Z,1015.84
2018-08-20T07:11:34.489Z,1015.87
2018-08-20T07:12:34.482Z,1015.89
2018-08-20T07:13:34.482Z,1015.90
2018-08-20T07:14:34.473Z,1015.88
2018-08-20T07:15:34.474Z,1015.90
2018-08-20T07:16:34.467Z,1015.89
2018-08-20T07:17:34.509Z,1015.90
2018-08-20T07:18:34.459Z,1015.92
2018-08-20T07:19:34.509Z,1015.89
2018-08-20T07:20:34.469Z,1015.96
2018-08-20T07:21:34.457Z,1015.90
2018-08-20T07:22:34.443Z,1015.93
2018-08-20T07:23:34.529Z,1015.92
2018-08-20T07:24:34.465Z,1015.93
2018-08-20T07:25:34.434Z,1015.90
2018-08-20T07:26:34.432Z,1015.95
2018-08-20T07:27:34.453Z,1015.99
2018-08-20T07:28:34.424Z,1015.98
2018-08-20T07:29:34.422Z,1016.00
2018-08-20T07:30:34.413Z,1015.98
2018-08-20T07:31:34.429Z,1015.99
2018-08-20T07:32:34.403Z,1016.01
2018-08-20T07:33:34.412Z,1016.01
2018-08-20T07:34:34.413Z,1016.01
2018-08-20T07:35:34.421Z,1015.97
2018-08-20T07:36:34.392Z,1015.93
2018-08-20T07:37:34.389Z,1015.96
2018-08-20T07:38:34.394Z,1015.96
2018-08-20T07:39:34.382Z,1015.95
2018-08-20T07:40:34.379Z,1015.99
2018-08-20T07:41:34.382Z,1016.02
2018-08-20T07:42:34.459Z,1015.99
2018-08-20T07:43:34.379Z,1015.98
2018-08-20T07:44:34.368Z,1016.01
2018-08-20T07:45:34.369Z,1015.98
2018-08-20T07:46:34.358Z,1016.02
2018-08-20T07:47:34.356Z,1016.00
2018-08-20T07:48:34.354Z,1016.03
2018-08-20T07:49:34.352Z,1016.05
2018-08-20T07:50:34.347Z,1016.04
2018-08-20T07:51:34.340Z,1016.04
2018-08-20T07:52:34.347Z,1016.04
2018-08-20T07:53:34.350Z,1016.07
2018-08-20T07:54:34.332Z,1016.03
2018-08-20T07:55:34.379Z,1016.11
2018-08-20T07:56:34.334Z,1016.07
2018-08-20T07:57:34.323Z,1016.05
2018-08-20T07:58:34.334Z,1016.07
2018-08-20T07:59:34.318Z,1016.07
2018-08-20T08:00:34.312Z,1016.07
2018-08-20T08:01:34.315Z,1016.04
2018-08-20T08:02:34.310Z,1016.02
2018-08-20T08:03:34.312Z,1016.03
2018-08-20T08:04:34.299Z,1016.03
2018-08-20T08:05:34.313Z,1016.01
2018-08-20T08:06:34.298Z,1016.00
2018-08-20T08:07:34.293Z,1015.97
2018-08-20T08:08:34.351Z,1015.98
2018-08-20T08:09:34.284Z,1015.99
2018-08-20T08:10:34.277Z,1015.99
2018-08-20T08:11:34.280Z,1016.00
2018-08-20T08:12:34.270Z,1016.02
2018-08-20T08:13:34.262Z,1016.02
2018-08-20T08:14:34.274Z,1016.07
2018-08-20T08:15:34.254Z,1016.12
2018-08-20T08:16:34.260Z,1016.12
2018-08-20T08:17:34.249Z,1016.15
2018-08-20T08:18:34.250Z,1016.20
2018-08-20T08:19:34.247Z,1016.15
2018-08-20T08:20:34.247Z,1016.18
2018-08-20T08:21:34.253Z,1016.17
2018-08-20T08:22:34.238Z,1016.19
2018-08-20T08:23:34.234Z,1016.23
2018-08-20T08:24:34.236Z,1016.26
2018-08-20T08:25:34.229Z,1016.25
2018-08-20T08:26:34.314Z,1016.24
2018-08-20T08:27:34.224Z,1016.29
2018-08-20T08:28:34.230Z,1016.25
2018-08-20T08:29:34.227Z,1016.22
2018-08-20T08:30:34.219Z,1016.26
2018-08-20T08:31:34.204Z,1016.27
2018-08-20T08:32:34.210Z,1016.25
2018-08-20T08:33:34.203Z,1016.28
2018-08-20T08:34:34.194Z,1016.28
2018-08-20T08:35:34.185Z,1016.27
2018-08-20T08:36:34.185Z,1016.26
2018-08-20T08:37:34.188Z,1016.27
2018-08-20T08:38:34.182Z,1016.28
2018-08-20T08:39:34.178Z,1016.31
2018-08-20T08:40:34.178Z,1016.31
2018-08-20T08:41:34.173Z,1016.31
2018-08-20T08:42:34.177Z,1016.31
2018-08-20T08:43:34.169Z,1016.30
2018-08-20T08:44:34.176Z,1016.28
2018-08-20T08:45:34.161Z,1016.28
2018-08-20T08:46:34.155Z,1016.29
2018-08-20T08:47:34.148Z,1016.25
2018-08-20T08:48:34.140Z,1016.25
2018-08-20T08:49:34.153Z,1016.23
2018-08-20T08:50:34.141Z,1016.25
2018-08-20T08:51:34.153Z,1016.28
2018-08-20T08:52:34.133Z,1016.31
2018-08-20T08:53:34.151Z,1016.29
2018-08-20T08:54:34.125Z,1016.33
2018-08-20T08:55:34.118Z,1016.33
2018-08-20T08:56:34.120Z,1016.35
2018-08-20T08:57:34.116Z,1016.35
2018-08-20T08:58:34.108Z,1016.36
2018-08-20T08:59:34.110Z,1016.38
2018-08-20T09:00:34.182Z,1016.34
2018-08-20T09:01:34.098Z,1016.34
2018-08-20T09:02:34.100Z,1016.38
2018-08-20T09:03:34.100Z,1016.35
2018-08-20T09:04:34.101Z,1016.40
2018-08-20T09:05:34.098Z,1016.36
2018-08-20T09:06:34.082Z,1016.37
2018-08-20T09:07:34.081Z,1016.34
2018-08-20T09:08:34.080Z,1016.38
2018-08-20T09:09:34.080Z,1016.34
2018-08-20T09:10:34.072Z,1016.36
2018-08-20T09:11:34.073Z,1016.39
2018-08-20T09:12:34.059Z,1016.37
2018-08-20T09:13:34.104Z,1016.37
2018-08-20T09:14:34.079Z,1016.38
2018-08-20T09:15:34.053Z,1016.38
2018-08-20T09:16:34.059Z,1016.41
2018-08-20T09:17:34.054Z,1016.40
2018-08-20T09:18:34.047Z,1016.42
2018-08-20T09:19:34.040Z,1016.40
2018-08-20T09:20:34.058Z,1016.41
2018-08-20T09:21:34.036Z,1016.41
2018-08-20T09:22:34.042Z,1016.43
2018-08-20T09:23:34.036Z,1016.44
2018-08-20T09:24:34.021Z,1016.43
2018-08-20T09:25:34.036Z,1016.43
2018-08-20T09:26:34.022Z,1016.45
2018-08-20T09:27:34.019Z,1016.42
2018-08-20T09:28:34.006Z,1016.44
2018-08-20T09:29:34.009Z,1016.45
2018-08-20T09:30:34.010Z,1016.43
2018-08-20T09:31:34.000Z,1016.46
2018-08-20T09:32:34.012Z,1016.47
2018-08-20T09:33:33.995Z,1016.48
2018-08-20T09:34:33.990Z,1016.49
2018-08-20T09:35:33.980Z,1016.51
2018-08-20T09:36:33.986Z,1016.50
2018-08-20T09:37:33.975Z,1016.46
2018-08-20T09:38:33.990Z,1016.42
2018-08-20T09:39:33.971Z,1016.47
2018-08-20T09:40:33.981Z,1016.48
2018-08-20T09:41:33.966Z,1016.48
2018-08-20T09:42:33.960Z,1016.47
2018-08-20T09:43:33.951Z,1016.45
2018-08-20T09:44:33.951Z,1016.53
2018-08-20T09:45:33.967Z,1016.49
2018-08-20T09:46:33.944Z,1016.51
2018-08-20T09:47:33.944Z,1016.48
2018-08-20T09:48:33.936Z,1016.51
2018-08-20T09:49:33.930Z,1016.49
2018-08-20T09:50:33.930Z,1016.48
2018-08-20T09:51:33.930Z,1016.48
2018-08-20T09:52:33.935Z,1016.50
2018-08-20T09:53:33.922Z,1016.47
2018-08-20T09:54:33.922Z,1016.46
2018-08-20T09:55:33.912Z,1016.48
2018-08-20T09:56:33.917Z,1016.48
2018-08-20T09:57:33.907Z,1016.48
2018-08-20T09:58:33.906Z,1016.48
2018-08-20T09:59:33.900Z,1016.47
2018-08-20T10:00:33.894Z,1016.48
2018-08-20T10:01:33.896Z,1016.52
2018-08-20T10:02:33.879Z,1016.47
2018-08-20T10:03:33.895Z,1016.51
2018-08-20T10:04:33.886Z,1016.46
2018-08-20T10:05:33.896Z,1016.49
2018-08-20T10:06:33.869Z,1016.47
2018-08-20T10:07:33.891Z,1016.51
2018-08-20T10:08:33.890Z,1016.48
2018-08-20T10:09:33.919Z,1016.44
2018-08-20T10:10:33.860Z,1016.47
2018-08-20T10:11:33.852Z,1016.48
2018-08-20T10:12:33.851Z,1016.43
2018-08-20T10:13:33.857Z,1016.45
2018-08-20T10:14:33.856Z,1016.45
2018-08-20T10:15:33.850Z,1016.49
2018-08-20T10:16:33.853Z,1016.47
2018-08-20T10:17:33.845Z,1016.48
2018-08-20T10:18:33.925Z,1016.48
2018-08-20T10:19:33.851Z,1016.46
2018-08-20T10:20:33.832Z,1016.48
2018-08-20T10:21:33.825Z,1016.47
2018-08-20T10:22:33.823Z,1016.47
2018-08-20T10:23:33.823Z,1016.49
2018-08-20T10:24:33.857Z,1016.46
2018-08-20T10:25:33.810Z,1016.48
2018-08-20T10:26:33.808Z,1016.52
2018-08-20T10:27:33.811Z,1016.53
2018-08-20T10:28:33.816Z,1016.50
2018-08-20T10:29:33.793Z,1016.52
2018-08-20T10:30:33.791Z,1016.55
2018-08-20T10:31:33.786Z,1016.53
2018-08-20T10:32:33.783Z,1016.55
2018-08-20T10:33:33.786Z,1016.54
2018-08-20T10:34:33.781Z,1016.57
2018-08-20T10:35:33.771Z,1016.57
2018-08-20T10:36:33.776Z,1016.56
2018-08-20T10:37:33.854Z,1016.57
2018-08-20T10:38:33.762Z,1016.58
2018-08-20T10:39:33.762Z,1016.57
2018-08-20T10:40:33.758Z,1016.56
2018-08-20T10:41:33.772Z,1016.57
2018-08-20T10:42:33.752Z,1016.56
2018-08-20T10:43:33.781Z,1016.56
2018-08-20T10:44:33.743Z,1016.57
2018-08-20T10:45:33.762Z,1016.55
2018-08-20T10:46:33.746Z,1016.55
2018-08-20T10:47:33.741Z,1016.55
2018-08-20T10:48:33.732Z,1016.59
2018-08-20T10:49:33.739Z,1016.60
2018-08-20T10:50:33.726Z,1016.59
2018-08-20T10:51:33.730Z,1016.58
2018-08-20T10:52:33.713Z,1016.61
2018-08-20T10:53:33.713Z,1016.60
2018-08-20T10:54:33.707Z,1016.59
2018-08-20T10:55:33.699Z,1016.60
2018-08-20T10:56:33.707Z,1016.62
2018-08-20T10:57:33.703Z,1016.59
2018-08-20T10:58:33.731Z,1016.65
2018-08-20T10:59:33.692Z,1016.65
2018-08-20T11:00:33.691Z,1016.66
2018-08-20T11:01:33.704Z,1016.68
2018-08-20T11:02:33.676Z,1016.68
2018-08-20T11:03:33.698Z,1016.67
2018-08-20T11:04:33.696Z,1016.66
2018-08-20T11:05:33.663Z,1016.67
2018-08-20T11:06:33.665Z,1016.68
2018-08-20T11:07:33.663Z,1016.67
2018-08-20T11:08:33.677Z,1016.67
2018-08-20T11:09:33.658Z,1016.64
2018-08-20T11:10:33.680Z,1016.65
2018-08-20T11:11:33.667Z,1016.66
2018-08-20T11:12:33.643Z,1016.67
2018-08-20T11:13:33.656Z,1016.66
2018-08-20T11:14:33.652Z,1016.66
2018-08-20T11:15:33.651Z,1016.66
2018-08-20T11:16:33.640Z,1016.70
2018-08-20T11:17:33.620Z,1016.68
2018-08-20T11:18:33.722Z,1016.67
2018-08-20T11:19:33.622Z,1016.62
2018-08-20T11:20:33.645Z,1016.62
2018-08-20T11:21:33.628Z,1016.63
2018-08-20T11:22:33.614Z,1016.62
2018-08-20T11:23:33.634Z,1016.62
2018-08-20T11:24:33.611Z,1016.65
2018-08-20T11:25:33.595Z,1016.68
2018-08-20T11:26:33.588Z,1016.70
2018-08-20T11:27:33.629Z,1016.70
2018-08-20T11:28:33.593Z,1016.70
2018-08-20T11:29:33.579Z,1016.66
2018-08-20T11:30:33.588Z,1016.68
2018-08-20T11:31:33.583Z,1016.68
2018-08-20T11:32:33.578Z,1016.68
2018-08-20T11:33:33.575Z,1016.63
2018-08-20T11:34:33.592Z,1016.65
2018-08-20T11:35:33.567Z,1016.66
2018-08-20T11:36:33.576Z,1016.63
2018-08-20T11:37:33.567Z,1016.64
2018-08-20T11:38:33.553Z,1016.61
2018-08-20T11:39:33.559Z,1016.62
2018-08-20T11:40:33.550Z,1016.61
2018-08-20T11:41:33.548Z,1016.63
2018-08-20T11:42:33.546Z,1016.59
2018-08-20T11:43:33.549Z,1016.58
2018-08-20T11:44:33.560Z,1016.57
2018-08-20T11:45:33.540Z,1016.58
2018-08-20T11:46:33.524Z,1016.57
2018-08-20T11:47:33.525Z,1016.54
2018-08-20T11:48:33.518Z,1016.51
2018-08-20T11:49:33.520Z,1016.53
2018-08-20T11:50:33.525Z,1016.52
2018-08-20T11:51:33.504Z,1016.51
2018-08-20T11:52:33.513Z,1016.53
2018-08-20T11:53:33.512Z,1016.52
2018-08-20T11:54:33.504Z,1016.50
2018-08-20T11:55:33.509Z,1016.54
2018-08-20T11:56:33.485Z,1016.53
2018-08-20T11:57:33.493Z,1016.54
2018-08-20T11:58:33.503Z,1016.52
2018-08-20T11:59:33.478Z,1016.52
2018-08-20T12:00:33.509Z,1016.48
2018-08-20T12:01:33.472Z,1016.48
2018-08-20T12:02:33.467Z,1016.49
2018-08-20T12:03:33.485Z,1016.46
2018-08-20T12:04:33.455Z,1016.48
2018-08-20T12:05:33.469Z,1016.46